sensor_id;sensor_type;location;lat;lon;timestamp;P1;durP1;ratioP1;P2;durP2;ratioP2
37731;SDS011;73769;56.932;24.254;2023-11-18T00:00:49;2.97;;;2.50;;
37731;SDS011;73769;56.932;24.254;2023-11-18T00:03:27;2.70;;;2.50;;
37731;SDS011;73769;56.932;24.254;2023-11-18T00:06:00;3.70;;;2.33;;
37731;SDS011;73769;56.932;24.254;2023-11-18T00:08:39;3.47;;;2.17;;
37731;SDS011;73769;56.932;24.254;2023-11-18T00:11:12;2.53;;;2.20;;
37731;SDS011;73769;56.932;24.254;2023-11-18T00:13:51;4.33;;;2.60;;
37731;SDS011;73769;56.932;24.254;2023-11-18T00:16:24;3.17;;;2.43;;
37731;SDS011;73769;56.932;24.254;2023-11-18T00:19:03;4.97;;;2.33;;
37731;SDS011;73769;56.932;24.254;2023-11-18T00:21:35;3.40;;;2.27;;
37731;SDS011;73769;56.932;24.254;2023-11-18T00:24:14;2.77;;;2.20;;
37731;SDS011;73769;56.932;24.254;2023-11-18T00:26:46;2.50;;;2.30;;
37731;SDS011;73769;56.932;24.254;2023-11-18T00:29:25;2.20;;;2.00;;
37731;SDS011;73769;56.932;24.254;2023-11-18T00:31:57;2.67;;;2.30;;
37731;SDS011;73769;56.932;24.254;2023-11-18T00:34:37;2.23;;;1.80;;
37731;SDS011;73769;56.932;24.254;2023-11-18T00:37:09;2.37;;;2.17;;
37731;SDS011;73769;56.932;24.254;2023-11-18T00:39:48;4.50;;;1.80;;
37731;SDS011;73769;56.932;24.254;2023-11-18T00:42:21;3.07;;;2.67;;
37731;SDS011;73769;56.932;24.254;2023-11-18T00:45:00;2.43;;;2.17;;
37731;SDS011;73769;56.932;24.254;2023-11-18T00:47:33;2.53;;;2.07;;
37731;SDS011;73769;56.932;24.254;2023-11-18T00:50:11;2.73;;;2.53;;
37731;SDS011;73769;56.932;24.254;2023-11-18T00:52:44;2.50;;;2.30;;
37731;SDS011;73769;56.932;24.254;2023-11-18T00:55:24;4.40;;;2.20;;
37731;SDS011;73769;56.932;24.254;2023-11-18T00:58:04;2.70;;;2.30;;
37731;SDS011;73769;56.932;24.254;2023-11-18T01:00:43;5.97;;;5.13;;
37731;SDS011;73769;56.932;24.254;2023-11-18T01:03:16;3.47;;;2.57;;
37731;SDS011;73769;56.932;24.254;2023-11-18T01:05:55;3.20;;;2.97;;
37731;SDS011;73769;56.932;24.254;2023-11-18T01:08:28;2.80;;;2.60;;
37731;SDS011;73769;56.932;24.254;2023-11-18T01:11:16;3.00;;;2.57;;
37731;SDS011;73769;56.932;24.254;2023-11-18T01:13:49;2.57;;;2.37;;
37731;SDS011;73769;56.932;24.254;2023-11-18T01:16:28;2.43;;;2.23;;
37731;SDS011;73769;56.932;24.254;2023-11-18T01:19:01;3.07;;;2.37;;
37731;SDS011;73769;56.932;24.254;2023-11-18T01:21:39;2.60;;;2.40;;
37731;SDS011;73769;56.932;24.254;2023-11-18T01:24:12;2.83;;;2.50;;
37731;SDS011;73769;56.932;24.254;2023-11-18T01:26:50;3.23;;;2.93;;
37731;SDS011;73769;56.932;24.254;2023-11-18T01:29:23;4.00;;;2.40;;
37731;SDS011;73769;56.932;24.254;2023-11-18T01:32:01;6.80;;;2.17;;
37731;SDS011;73769;56.932;24.254;2023-11-18T01:34:36;2.57;;;2.20;;
37731;SDS011;73769;56.932;24.254;2023-11-18T01:37:16;2.77;;;2.50;;
37731;SDS011;73769;56.932;24.254;2023-11-18T01:39:48;4.63;;;2.40;;
37731;SDS011;73769;56.932;24.254;2023-11-18T01:42:27;2.53;;;2.20;;
37731;SDS011;73769;56.932;24.254;2023-11-18T01:45:00;5.43;;;2.40;;
37731;SDS011;73769;56.932;24.254;2023-11-18T01:47:39;2.47;;;1.87;;
37731;SDS011;73769;56.932;24.254;2023-11-18T01:50:13;2.97;;;2.10;;
37731;SDS011;73769;56.932;24.254;2023-11-18T01:52:52;2.63;;;2.07;;
37731;SDS011;73769;56.932;24.254;2023-11-18T01:55:25;3.83;;;2.00;;
37731;SDS011;73769;56.932;24.254;2023-11-18T01:58:04;2.10;;;1.80;;
37731;SDS011;73769;56.932;24.254;2023-11-18T02:00:36;2.30;;;2.03;;
37731;SDS011;73769;56.932;24.254;2023-11-18T02:03:17;2.30;;;2.10;;
37731;SDS011;73769;56.932;24.254;2023-11-18T02:05:50;3.90;;;2.40;;
37731;SDS011;73769;56.932;24.254;2023-11-18T02:08:29;2.40;;;2.20;;
37731;SDS011;73769;56.932;24.254;2023-11-18T02:14:03;2.60;;;2.10;;
37731;SDS011;73769;56.932;24.254;2023-11-18T02:16:37;1.77;;;1.63;;
37731;SDS011;73769;56.932;24.254;2023-11-18T02:19:21;2.40;;;2.20;;
37731;SDS011;73769;56.932;24.254;2023-11-18T02:21:55;2.50;;;2.30;;
37731;SDS011;73769;56.932;24.254;2023-11-18T02:24:34;2.27;;;1.87;;
37731;SDS011;73769;56.932;24.254;2023-11-18T02:27:07;2.10;;;1.73;;
37731;SDS011;73769;56.932;24.254;2023-11-18T02:29:47;2.37;;;2.17;;
37731;SDS011;73769;56.932;24.254;2023-11-18T02:35:38;2.57;;;2.03;;
37731;SDS011;73769;56.932;24.254;2023-11-18T02:38:17;2.40;;;1.60;;
37731;SDS011;73769;56.932;24.254;2023-11-18T02:41:00;2.40;;;2.20;;
37731;SDS011;73769;56.932;24.254;2023-11-18T02:43:38;2.20;;;1.97;;
37731;SDS011;73769;56.932;24.254;2023-11-18T02:46:19;2.43;;;2.23;;
37731;SDS011;73769;56.932;24.254;2023-11-18T02:48:53;2.30;;;2.10;;
37731;SDS011;73769;56.932;24.254;2023-11-18T02:51:32;1.90;;;1.80;;
37731;SDS011;73769;56.932;24.254;2023-11-18T02:54:05;2.47;;;2.27;;
37731;SDS011;73769;56.932;24.254;2023-11-18T02:56:45;2.37;;;2.00;;
37731;SDS011;73769;56.932;24.254;2023-11-18T02:59:17;2.00;;;1.80;;
37731;SDS011;73769;56.932;24.254;2023-11-18T03:01:56;2.07;;;1.83;;
37731;SDS011;73769;56.932;24.254;2023-11-18T03:04:29;2.40;;;2.20;;
37731;SDS011;73769;56.932;24.254;2023-11-18T03:07:08;1.97;;;1.87;;
37731;SDS011;73769;56.932;24.254;2023-11-18T03:09:41;3.03;;;2.03;;
37731;SDS011;73769;56.932;24.254;2023-11-18T03:12:20;5.27;;;2.10;;
37731;SDS011;73769;56.932;24.254;2023-11-18T03:15:00;2.20;;;2.00;;
37731;SDS011;73769;56.932;24.254;2023-11-18T03:17:38;2.43;;;2.23;;
37731;SDS011;73769;56.932;24.254;2023-11-18T03:20:11;2.03;;;1.83;;
37731;SDS011;73769;56.932;24.254;2023-11-18T03:22:51;2.10;;;2.00;;
37731;SDS011;73769;56.932;24.254;2023-11-18T03:25:23;2.30;;;2.10;;
37731;SDS011;73769;56.932;24.254;2023-11-18T03:28:02;3.37;;;2.07;;
37731;SDS011;73769;56.932;24.254;2023-11-18T03:30:35;3.47;;;2.27;;
37731;SDS011;73769;56.932;24.254;2023-11-18T03:33:14;2.30;;;2.10;;
37731;SDS011;73769;56.932;24.254;2023-11-18T03:35:46;4.63;;;1.60;;
37731;SDS011;73769;56.932;24.254;2023-11-18T03:38:25;2.40;;;1.80;;
37731;SDS011;73769;56.932;24.254;2023-11-18T03:40:57;2.23;;;2.03;;
37731;SDS011;73769;56.932;24.254;2023-11-18T03:43:37;2.43;;;1.80;;
37731;SDS011;73769;56.932;24.254;2023-11-18T03:46:10;2.40;;;1.97;;
37731;SDS011;73769;56.932;24.254;2023-11-18T03:48:49;2.30;;;2.10;;
37731;SDS011;73769;56.932;24.254;2023-11-18T03:51:21;2.23;;;2.00;;
37731;SDS011;73769;56.932;24.254;2023-11-18T03:54:00;2.40;;;2.20;;
37731;SDS011;73769;56.932;24.254;2023-11-18T03:56:33;2.47;;;2.10;;
37731;SDS011;73769;56.932;24.254;2023-11-18T03:59:12;4.90;;;2.10;;
37731;SDS011;73769;56.932;24.254;2023-11-18T04:01:44;2.50;;;2.03;;
37731;SDS011;73769;56.932;24.254;2023-11-18T04:04:22;3.77;;;2.30;;
37731;SDS011;73769;56.932;24.254;2023-11-18T04:06:55;2.13;;;1.93;;
37731;SDS011;73769;56.932;24.254;2023-11-18T04:09:33;2.57;;;2.00;;
37731;SDS011;73769;56.932;24.254;2023-11-18T04:12:06;4.40;;;2.00;;
37731;SDS011;73769;56.932;24.254;2023-11-18T04:14:45;2.83;;;1.97;;
37731;SDS011;73769;56.932;24.254;2023-11-18T04:17:18;2.87;;;1.93;;
37731;SDS011;73769;56.932;24.254;2023-11-18T04:19:57;3.03;;;2.10;;
37731;SDS011;73769;56.932;24.254;2023-11-18T04:22:30;1.93;;;1.83;;
37731;SDS011;73769;56.932;24.254;2023-11-18T04:25:09;3.30;;;1.80;;
37731;SDS011;73769;56.932;24.254;2023-11-18T04:27:42;2.57;;;2.37;;
37731;SDS011;73769;56.932;24.254;2023-11-18T04:30:20;3.17;;;2.03;;
37731;SDS011;73769;56.932;24.254;2023-11-18T04:32:52;7.50;;;1.97;;
37731;SDS011;73769;56.932;24.254;2023-11-18T04:35:31;2.53;;;2.33;;
37731;SDS011;73769;56.932;24.254;2023-11-18T04:38:03;2.47;;;2.27;;
37731;SDS011;73769;56.932;24.254;2023-11-18T04:40:42;2.10;;;1.70;;
37731;SDS011;73769;56.932;24.254;2023-11-18T04:43:15;2.53;;;1.93;;
37731;SDS011;73769;56.932;24.254;2023-11-18T04:46:09;1.70;;;1.60;;
37731;SDS011;73769;56.932;24.254;2023-11-18T04:48:41;1.73;;;1.63;;
37731;SDS011;73769;56.932;24.254;2023-11-18T04:51:21;2.37;;;2.17;;
37731;SDS011;73769;56.932;24.254;2023-11-18T04:53:53;2.10;;;1.90;;
37731;SDS011;73769;56.932;24.254;2023-11-18T04:56:33;6.50;;;1.90;;
37731;SDS011;73769;56.932;24.254;2023-11-18T04:59:05;1.93;;;1.80;;
37731;SDS011;73769;56.932;24.254;2023-11-18T05:01:44;2.00;;;1.87;;
37731;SDS011;73769;56.932;24.254;2023-11-18T05:04:17;2.87;;;1.80;;
37731;SDS011;73769;56.932;24.254;2023-11-18T05:06:56;3.33;;;2.10;;
37731;SDS011;73769;56.932;24.254;2023-11-18T05:09:29;5.17;;;2.37;;
37731;SDS011;73769;56.932;24.254;2023-11-18T05:12:09;4.50;;;2.60;;
37731;SDS011;73769;56.932;24.254;2023-11-18T05:14:41;5.37;;;2.83;;
37731;SDS011;73769;56.932;24.254;2023-11-18T05:17:19;4.57;;;2.57;;
37731;SDS011;73769;56.932;24.254;2023-11-18T05:19:52;2.47;;;2.23;;
37731;SDS011;73769;56.932;24.254;2023-11-18T05:22:32;2.43;;;2.20;;
37731;SDS011;73769;56.932;24.254;2023-11-18T05:25:04;2.60;;;2.20;;
37731;SDS011;73769;56.932;24.254;2023-11-18T05:27:43;2.00;;;1.83;;
37731;SDS011;73769;56.932;24.254;2023-11-18T05:30:15;3.90;;;1.80;;
37731;SDS011;73769;56.932;24.254;2023-11-18T05:32:54;1.80;;;1.70;;
37731;SDS011;73769;56.932;24.254;2023-11-18T05:35:27;2.80;;;2.30;;
37731;SDS011;73769;56.932;24.254;2023-11-18T05:38:05;2.00;;;1.90;;
37731;SDS011;73769;56.932;24.254;2023-11-18T05:40:38;3.50;;;1.87;;
37731;SDS011;73769;56.932;24.254;2023-11-18T05:43:17;2.47;;;2.10;;
37731;SDS011;73769;56.932;24.254;2023-11-18T05:45:49;3.20;;;2.27;;
37731;SDS011;73769;56.932;24.254;2023-11-18T05:48:28;2.27;;;2.03;;
37731;SDS011;73769;56.932;24.254;2023-11-18T05:51:01;4.83;;;3.03;;
37731;SDS011;73769;56.932;24.254;2023-11-18T05:53:41;3.03;;;2.60;;
37731;SDS011;73769;56.932;24.254;2023-11-18T05:56:15;3.20;;;2.57;;
37731;SDS011;73769;56.932;24.254;2023-11-18T05:58:55;6.00;;;2.70;;
37731;SDS011;73769;56.932;24.254;2023-11-18T06:01:27;4.23;;;2.47;;
37731;SDS011;73769;56.932;24.254;2023-11-18T06:04:08;4.47;;;2.30;;
37731;SDS011;73769;56.932;24.254;2023-11-18T06:06:40;4.83;;;3.00;;
37731;SDS011;73769;56.932;24.254;2023-11-18T06:09:19;3.63;;;2.57;;
37731;SDS011;73769;56.932;24.254;2023-11-18T06:11:52;3.87;;;3.00;;
37731;SDS011;73769;56.932;24.254;2023-11-18T06:14:30;5.07;;;2.90;;
37731;SDS011;73769;56.932;24.254;2023-11-18T06:17:02;3.83;;;2.83;;
37731;SDS011;73769;56.932;24.254;2023-11-18T06:19:41;6.03;;;3.00;;
37731;SDS011;73769;56.932;24.254;2023-11-18T06:22:14;8.47;;;4.03;;
37731;SDS011;73769;56.932;24.254;2023-11-18T06:24:56;3.03;;;2.53;;
37731;SDS011;73769;56.932;24.254;2023-11-18T06:27:31;3.90;;;2.80;;
37731;SDS011;73769;56.932;24.254;2023-11-18T06:30:09;3.37;;;2.20;;
37731;SDS011;73769;56.932;24.254;2023-11-18T06:32:43;3.47;;;2.33;;
37731;SDS011;73769;56.932;24.254;2023-11-18T06:35:21;2.87;;;2.20;;
37731;SDS011;73769;56.932;24.254;2023-11-18T06:37:54;4.90;;;2.47;;
37731;SDS011;73769;56.932;24.254;2023-11-18T06:40:33;3.90;;;2.97;;
37731;SDS011;73769;56.932;24.254;2023-11-18T06:43:05;3.47;;;2.73;;
37731;SDS011;73769;56.932;24.254;2023-11-18T06:45:45;4.53;;;3.10;;
37731;SDS011;73769;56.932;24.254;2023-11-18T06:48:17;7.10;;;2.93;;
37731;SDS011;73769;56.932;24.254;2023-11-18T06:50:57;3.67;;;2.80;;
37731;SDS011;73769;56.932;24.254;2023-11-18T06:53:29;3.47;;;2.80;;
37731;SDS011;73769;56.932;24.254;2023-11-18T06:56:07;4.27;;;2.70;;
37731;SDS011;73769;56.932;24.254;2023-11-18T06:58:40;2.83;;;2.40;;
37731;SDS011;73769;56.932;24.254;2023-11-18T07:01:19;3.80;;;3.23;;
37731;SDS011;73769;56.932;24.254;2023-11-18T07:03:52;3.10;;;2.57;;
37731;SDS011;73769;56.932;24.254;2023-11-18T07:06:31;3.17;;;2.70;;
37731;SDS011;73769;56.932;24.254;2023-11-18T07:09:04;3.80;;;3.00;;
37731;SDS011;73769;56.932;24.254;2023-11-18T07:11:44;4.13;;;2.80;;
37731;SDS011;73769;56.932;24.254;2023-11-18T07:14:16;3.00;;;2.70;;
37731;SDS011;73769;56.932;24.254;2023-11-18T07:16:55;3.53;;;2.27;;
37731;SDS011;73769;56.932;24.254;2023-11-18T07:19:28;3.77;;;2.63;;
37731;SDS011;73769;56.932;24.254;2023-11-18T07:22:06;6.10;;;2.90;;
37731;SDS011;73769;56.932;24.254;2023-11-18T07:24:39;3.30;;;2.87;;
37731;SDS011;73769;56.932;24.254;2023-11-18T07:27:18;5.90;;;2.67;;
37731;SDS011;73769;56.932;24.254;2023-11-18T07:29:50;4.50;;;2.80;;
37731;SDS011;73769;56.932;24.254;2023-11-18T07:32:29;2.70;;;2.33;;
37731;SDS011;73769;56.932;24.254;2023-11-18T07:35:01;3.10;;;2.80;;
37731;SDS011;73769;56.932;24.254;2023-11-18T07:37:41;3.90;;;3.07;;
37731;SDS011;73769;56.932;24.254;2023-11-18T07:40:13;3.07;;;2.77;;
37731;SDS011;73769;56.932;24.254;2023-11-18T07:42:53;4.00;;;3.40;;
37731;SDS011;73769;56.932;24.254;2023-11-18T07:45:26;5.20;;;3.23;;
37731;SDS011;73769;56.932;24.254;2023-11-18T07:48:06;3.63;;;3.10;;
37731;SDS011;73769;56.932;24.254;2023-11-18T07:50:40;5.77;;;4.17;;
37731;SDS011;73769;56.932;24.254;2023-11-18T07:53:19;6.97;;;4.50;;
37731;SDS011;73769;56.932;24.254;2023-11-18T07:55:52;3.07;;;2.77;;
37731;SDS011;73769;56.932;24.254;2023-11-18T07:58:31;5.07;;;2.80;;
37731;SDS011;73769;56.932;24.254;2023-11-18T08:01:04;4.70;;;2.80;;
37731;SDS011;73769;56.932;24.254;2023-11-18T08:03:44;3.70;;;3.00;;
37731;SDS011;73769;56.932;24.254;2023-11-18T08:06:16;3.20;;;2.77;;
37731;SDS011;73769;56.932;24.254;2023-11-18T08:08:55;4.27;;;3.77;;
37731;SDS011;73769;56.932;24.254;2023-11-18T08:11:28;4.27;;;3.53;;
37731;SDS011;73769;56.932;24.254;2023-11-18T08:14:07;5.03;;;2.67;;
37731;SDS011;73769;56.932;24.254;2023-11-18T08:16:39;3.80;;;3.00;;
37731;SDS011;73769;56.932;24.254;2023-11-18T08:19:18;3.63;;;3.03;;
37731;SDS011;73769;56.932;24.254;2023-11-18T08:21:50;3.87;;;2.60;;
37731;SDS011;73769;56.932;24.254;2023-11-18T08:24:28;2.80;;;2.60;;
37731;SDS011;73769;56.932;24.254;2023-11-18T08:27:01;2.33;;;2.13;;
37731;SDS011;73769;56.932;24.254;2023-11-18T08:29:41;2.30;;;2.07;;
37731;SDS011;73769;56.932;24.254;2023-11-18T08:32:13;2.27;;;2.03;;
37731;SDS011;73769;56.932;24.254;2023-11-18T08:34:52;2.90;;;2.70;;
37731;SDS011;73769;56.932;24.254;2023-11-18T08:37:25;2.53;;;2.33;;
37731;SDS011;73769;56.932;24.254;2023-11-18T08:40:04;2.37;;;2.17;;
37731;SDS011;73769;56.932;24.254;2023-11-18T08:42:37;2.37;;;2.17;;
37731;SDS011;73769;56.932;24.254;2023-11-18T08:45:16;5.50;;;2.90;;
37731;SDS011;73769;56.932;24.254;2023-11-18T08:47:52;3.13;;;2.90;;
37731;SDS011;73769;56.932;24.254;2023-11-18T08:50:31;5.47;;;3.90;;
37731;SDS011;73769;56.932;24.254;2023-11-18T08:53:03;3.17;;;2.87;;
37731;SDS011;73769;56.932;24.254;2023-11-18T08:55:42;4.57;;;3.13;;
37731;SDS011;73769;56.932;24.254;2023-11-18T08:58:15;4.37;;;3.67;;
37731;SDS011;73769;56.932;24.254;2023-11-18T09:00:56;3.13;;;2.87;;
37731;SDS011;73769;56.932;24.254;2023-11-18T09:03:29;4.83;;;3.70;;
37731;SDS011;73769;56.932;24.254;2023-11-18T09:06:09;4.37;;;3.53;;
37731;SDS011;73769;56.932;24.254;2023-11-18T09:08:43;5.70;;;3.73;;
37731;SDS011;73769;56.932;24.254;2023-11-18T09:11:26;5.47;;;4.00;;
37731;SDS011;73769;56.932;24.254;2023-11-18T09:13:58;5.43;;;3.73;;
37731;SDS011;73769;56.932;24.254;2023-11-18T09:16:38;5.90;;;3.90;;
37731;SDS011;73769;56.932;24.254;2023-11-18T09:19:10;4.57;;;3.33;;
37731;SDS011;73769;56.932;24.254;2023-11-18T09:21:50;5.00;;;3.37;;
37731;SDS011;73769;56.932;24.254;2023-11-18T09:24:22;4.47;;;3.33;;
37731;SDS011;73769;56.932;24.254;2023-11-18T09:27:03;6.50;;;3.10;;
37731;SDS011;73769;56.932;24.254;2023-11-18T09:29:35;3.83;;;2.90;;
37731;SDS011;73769;56.932;24.254;2023-11-18T09:32:14;3.40;;;2.60;;
37731;SDS011;73769;56.932;24.254;2023-11-18T09:34:47;4.27;;;3.20;;
37731;SDS011;73769;56.932;24.254;2023-11-18T09:37:25;2.97;;;2.73;;
37731;SDS011;73769;56.932;24.254;2023-11-18T09:39:58;3.40;;;2.33;;
37731;SDS011;73769;56.932;24.254;2023-11-18T09:42:37;2.87;;;2.50;;
37731;SDS011;73769;56.932;24.254;2023-11-18T09:45:09;2.63;;;2.43;;
37731;SDS011;73769;56.932;24.254;2023-11-18T09:47:49;2.73;;;2.20;;
37731;SDS011;73769;56.932;24.254;2023-11-18T09:50:23;4.30;;;2.40;;
37731;SDS011;73769;56.932;24.254;2023-11-18T09:53:06;2.57;;;2.37;;
37731;SDS011;73769;56.932;24.254;2023-11-18T09:55:47;2.90;;;2.50;;
37731;SDS011;73769;56.932;24.254;2023-11-18T09:58:40;2.40;;;2.20;;
37731;SDS011;73769;56.932;24.254;2023-11-18T10:01:19;3.33;;;2.40;;
37731;SDS011;73769;56.932;24.254;2023-11-18T10:04:02;4.60;;;3.37;;
37731;SDS011;73769;56.932;24.254;2023-11-18T10:06:35;4.03;;;3.13;;
37731;SDS011;73769;56.932;24.254;2023-11-18T10:09:13;5.43;;;3.30;;
37731;SDS011;73769;56.932;24.254;2023-11-18T10:11:49;5.10;;;3.53;;
37731;SDS011;73769;56.932;24.254;2023-11-18T10:14:27;7.90;;;4.67;;
37731;SDS011;73769;56.932;24.254;2023-11-18T10:17:08;7.50;;;5.10;;
37731;SDS011;73769;56.932;24.254;2023-11-18T10:22:30;5.90;;;4.10;;
37731;SDS011;73769;56.932;24.254;2023-11-18T10:25:09;4.70;;;3.47;;
37731;SDS011;73769;56.932;24.254;2023-11-18T10:27:42;6.13;;;2.97;;
37731;SDS011;73769;56.932;24.254;2023-11-18T10:30:24;4.93;;;4.43;;
37731;SDS011;73769;56.932;24.254;2023-11-18T10:32:57;4.13;;;3.73;;
37731;SDS011;73769;56.932;24.254;2023-11-18T10:35:37;3.80;;;2.70;;
37731;SDS011;73769;56.932;24.254;2023-11-18T10:38:09;5.63;;;4.63;;
37731;SDS011;73769;56.932;24.254;2023-11-18T10:40:49;3.80;;;3.37;;
37731;SDS011;73769;56.932;24.254;2023-11-18T10:43:21;7.10;;;3.10;;
37731;SDS011;73769;56.932;24.254;2023-11-18T10:46:07;4.53;;;4.00;;
37731;SDS011;73769;56.932;24.254;2023-11-18T10:48:44;5.17;;;4.50;;
37731;SDS011;73769;56.932;24.254;2023-11-18T10:51:25;3.90;;;3.50;;
37731;SDS011;73769;56.932;24.254;2023-11-18T10:53:58;4.50;;;3.90;;
37731;SDS011;73769;56.932;24.254;2023-11-18T10:56:38;5.13;;;4.30;;
37731;SDS011;73769;56.932;24.254;2023-11-18T10:59:18;8.60;;;5.07;;
37731;SDS011;73769;56.932;24.254;2023-11-18T11:01:58;40.57;;;18.23;;
37731;SDS011;73769;56.932;24.254;2023-11-18T11:04:33;6.33;;;4.17;;
37731;SDS011;73769;56.932;24.254;2023-11-18T11:07:22;15.30;;;8.13;;
37731;SDS011;73769;56.932;24.254;2023-11-18T11:09:55;44.07;;;20.30;;
37731;SDS011;73769;56.932;24.254;2023-11-18T11:12:35;17.50;;;10.77;;
37731;SDS011;73769;56.932;24.254;2023-11-18T11:15:15;19.63;;;10.13;;
37731;SDS011;73769;56.932;24.254;2023-11-18T11:17:58;7.17;;;5.17;;
37731;SDS011;73769;56.932;24.254;2023-11-18T11:20:41;19.67;;;10.10;;
37731;SDS011;73769;56.932;24.254;2023-11-18T11:26:23;7.70;;;4.97;;
37731;SDS011;73769;56.932;24.254;2023-11-18T11:32:35;6.00;;;4.10;;
37731;SDS011;73769;56.932;24.254;2023-11-18T11:35:10;4.03;;;3.07;;
37731;SDS011;73769;56.932;24.254;2023-11-18T11:37:56;5.57;;;3.83;;
37731;SDS011;73769;56.932;24.254;2023-11-18T11:40:36;8.37;;;4.57;;
37731;SDS011;73769;56.932;24.254;2023-11-18T11:43:10;7.70;;;5.00;;
37731;SDS011;73769;56.932;24.254;2023-11-18T11:45:50;4.93;;;3.60;;
37731;SDS011;73769;56.932;24.254;2023-11-18T11:48:23;7.50;;;3.70;;
37731;SDS011;73769;56.932;24.254;2023-11-18T11:54:13;4.93;;;3.20;;
37731;SDS011;73769;56.932;24.254;2023-11-18T11:56:55;3.77;;;3.17;;
37731;SDS011;73769;56.932;24.254;2023-11-18T12:00:13;5.20;;;3.40;;
37731;SDS011;73769;56.932;24.254;2023-11-18T12:02:27;5.13;;;3.77;;
37731;SDS011;73769;56.932;24.254;2023-11-18T12:04:59;8.13;;;4.10;;
37731;SDS011;73769;56.932;24.254;2023-11-18T12:07:39;9.80;;;5.37;;
37731;SDS011;73769;56.932;24.254;2023-11-18T12:10:12;8.80;;;3.70;;
37731;SDS011;73769;56.932;24.254;2023-11-18T12:12:51;4.17;;;2.90;;
37731;SDS011;73769;56.932;24.254;2023-11-18T12:15:49;4.03;;;3.20;;
37731;SDS011;73769;56.932;24.254;2023-11-18T12:18:29;4.57;;;3.60;;
37731;SDS011;73769;56.932;24.254;2023-11-18T12:21:01;3.90;;;2.97;;
37731;SDS011;73769;56.932;24.254;2023-11-18T12:23:46;6.63;;;3.40;;
37731;SDS011;73769;56.932;24.254;2023-11-18T12:26:48;3.27;;;2.77;;
37731;SDS011;73769;56.932;24.254;2023-11-18T12:29:30;6.40;;;3.60;;
37731;SDS011;73769;56.932;24.254;2023-11-18T12:32:06;4.93;;;3.40;;
37731;SDS011;73769;56.932;24.254;2023-11-18T12:34:51;27.80;;;17.63;;
37731;SDS011;73769;56.932;24.254;2023-11-18T12:40:57;49.23;;;19.57;;
37731;SDS011;73769;56.932;24.254;2023-11-18T12:43:48;18.17;;;9.47;;
37731;SDS011;73769;56.932;24.254;2023-11-18T12:46:48;7.47;;;5.33;;
37731;SDS011;73769;56.932;24.254;2023-11-18T12:49:29;8.13;;;5.03;;
37731;SDS011;73769;56.932;24.254;2023-11-18T12:52:08;12.10;;;6.10;;
37731;SDS011;73769;56.932;24.254;2023-11-18T12:54:44;5.93;;;4.80;;
37731;SDS011;73769;56.932;24.254;2023-11-18T12:57:26;7.83;;;4.30;;
37731;SDS011;73769;56.932;24.254;2023-11-18T12:59:59;7.80;;;4.17;;
37731;SDS011;73769;56.932;24.254;2023-11-18T13:02:39;6.53;;;4.30;;
37731;SDS011;73769;56.932;24.254;2023-11-18T13:05:12;6.20;;;4.20;;
37731;SDS011;73769;56.932;24.254;2023-11-18T13:07:52;7.30;;;4.53;;
37731;SDS011;73769;56.932;24.254;2023-11-18T13:10:24;10.27;;;4.37;;
37731;SDS011;73769;56.932;24.254;2023-11-18T13:13:03;7.97;;;4.80;;
37731;SDS011;73769;56.932;24.254;2023-11-18T13:15:36;9.13;;;5.37;;
37731;SDS011;73769;56.932;24.254;2023-11-18T13:18:15;9.37;;;4.90;;
37731;SDS011;73769;56.932;24.254;2023-11-18T13:20:54;8.00;;;5.27;;
37731;SDS011;73769;56.932;24.254;2023-11-18T13:23:33;9.57;;;5.10;;
37731;SDS011;73769;56.932;24.254;2023-11-18T13:26:05;10.87;;;5.27;;
37731;SDS011;73769;56.932;24.254;2023-11-18T13:28:46;13.37;;;5.33;;
37731;SDS011;73769;56.932;24.254;2023-11-18T13:31:18;8.73;;;5.13;;
37731;SDS011;73769;56.932;24.254;2023-11-18T13:33:58;10.60;;;5.60;;
37731;SDS011;73769;56.932;24.254;2023-11-18T13:36:31;11.07;;;4.80;;
37731;SDS011;73769;56.932;24.254;2023-11-18T13:39:19;10.53;;;5.03;;
37731;SDS011;73769;56.932;24.254;2023-11-18T13:41:51;8.47;;;4.63;;
37731;SDS011;73769;56.932;24.254;2023-11-18T13:44:35;8.57;;;5.40;;
37731;SDS011;73769;56.932;24.254;2023-11-18T13:47:09;8.57;;;6.00;;
37731;SDS011;73769;56.932;24.254;2023-11-18T13:49:49;7.10;;;5.53;;
37731;SDS011;73769;56.932;24.254;2023-11-18T13:52:22;13.13;;;8.07;;
37731;SDS011;73769;56.932;24.254;2023-11-18T13:55:02;11.77;;;5.57;;
37731;SDS011;73769;56.932;24.254;2023-11-18T13:57:34;7.67;;;5.37;;
37731;SDS011;73769;56.932;24.254;2023-11-18T14:00:14;7.80;;;5.40;;
37731;SDS011;73769;56.932;24.254;2023-11-18T14:02:47;8.37;;;5.93;;
37731;SDS011;73769;56.932;24.254;2023-11-18T14:05:26;6.10;;;5.10;;
37731;SDS011;73769;56.932;24.254;2023-11-18T14:07:58;9.10;;;5.00;;
37731;SDS011;73769;56.932;24.254;2023-11-18T14:10:38;6.53;;;4.87;;
37731;SDS011;73769;56.932;24.254;2023-11-18T14:13:10;17.53;;;9.03;;
37731;SDS011;73769;56.932;24.254;2023-11-18T14:15:53;7.60;;;4.70;;
37731;SDS011;73769;56.932;24.254;2023-11-18T14:18:25;15.73;;;10.10;;
37731;SDS011;73769;56.932;24.254;2023-11-18T14:21:05;18.10;;;11.93;;
37731;SDS011;73769;56.932;24.254;2023-11-18T14:23:37;23.30;;;12.47;;
37731;SDS011;73769;56.932;24.254;2023-11-18T14:26:16;178.17;;;89.00;;
37731;SDS011;73769;56.932;24.254;2023-11-18T14:28:48;169.17;;;77.73;;
37731;SDS011;73769;56.932;24.254;2023-11-18T14:31:27;124.83;;;54.47;;
37731;SDS011;73769;56.932;24.254;2023-11-18T14:33:59;151.23;;;64.07;;
37731;SDS011;73769;56.932;24.254;2023-11-18T14:36:39;16.70;;;9.57;;
37731;SDS011;73769;56.932;24.254;2023-11-18T14:39:12;24.07;;;14.03;;
37731;SDS011;73769;56.932;24.254;2023-11-18T14:41:52;10.53;;;7.30;;
37731;SDS011;73769;56.932;24.254;2023-11-18T14:44:24;12.83;;;6.03;;
37731;SDS011;73769;56.932;24.254;2023-11-18T14:47:04;8.67;;;6.20;;
37731;SDS011;73769;56.932;24.254;2023-11-18T14:49:36;9.40;;;5.50;;
37731;SDS011;73769;56.932;24.254;2023-11-18T14:52:16;6.47;;;5.10;;
37731;SDS011;73769;56.932;24.254;2023-11-18T14:54:48;8.73;;;4.77;;
37731;SDS011;73769;56.932;24.254;2023-11-18T14:57:28;8.53;;;5.67;;
37731;SDS011;73769;56.932;24.254;2023-11-18T15:00:00;10.00;;;4.93;;
37731;SDS011;73769;56.932;24.254;2023-11-18T15:02:40;11.50;;;5.90;;
37731;SDS011;73769;56.932;24.254;2023-11-18T15:05:12;14.13;;;6.47;;
37731;SDS011;73769;56.932;24.254;2023-11-18T15:07:53;8.97;;;5.50;;
37731;SDS011;73769;56.932;24.254;2023-11-18T15:10:27;8.53;;;4.87;;
37731;SDS011;73769;56.932;24.254;2023-11-18T15:13:07;12.70;;;5.77;;
37731;SDS011;73769;56.932;24.254;2023-11-18T15:15:40;51.80;;;22.40;;
37731;SDS011;73769;56.932;24.254;2023-11-18T15:18:20;34.23;;;15.23;;
37731;SDS011;73769;56.932;24.254;2023-11-18T15:20:53;21.93;;;11.00;;
37731;SDS011;73769;56.932;24.254;2023-11-18T15:23:33;25.10;;;13.60;;
37731;SDS011;73769;56.932;24.254;2023-11-18T15:26:06;15.53;;;8.30;;
37731;SDS011;73769;56.932;24.254;2023-11-18T15:28:45;11.23;;;6.97;;
37731;SDS011;73769;56.932;24.254;2023-11-18T15:31:17;12.20;;;7.23;;
37731;SDS011;73769;56.932;24.254;2023-11-18T15:33:57;10.13;;;6.20;;
37731;SDS011;73769;56.932;24.254;2023-11-18T15:36:30;8.07;;;5.60;;
37731;SDS011;73769;56.932;24.254;2023-11-18T15:39:09;17.10;;;7.83;;
37731;SDS011;73769;56.932;24.254;2023-11-18T15:41:42;17.80;;;8.63;;
37731;SDS011;73769;56.932;24.254;2023-11-18T15:44:22;32.03;;;14.90;;
37731;SDS011;73769;56.932;24.254;2023-11-18T15:46:54;44.77;;;17.70;;
37731;SDS011;73769;56.932;24.254;2023-11-18T15:49:34;19.67;;;10.53;;